createdAt,value
2022-12-18T00:00:02.032Z,88.11
2022-12-18T00:05:00.429Z,88.15
2022-12-18T00:10:00.377Z,88.18
2022-12-18T00:15:00.334Z,87.67
2022-12-18T00:20:00.468Z,87.64
2022-12-18T00:25:00.363Z,87.51
2022-12-18T00:30:00.413Z,87.82
2022-12-18T00:35:00.347Z,87.66
2022-12-18T00:40:00.469Z,87.61
2022-12-18T00:45:00.432Z,87.50
2022-12-18T00:50:00.590Z,87.50
2022-12-18T00:55:04.607Z,87.37
2022-12-18T01:00:01.237Z,87.25
2022-12-18T01:05:00.459Z,87.23
2022-12-18T01:10:00.396Z,87.25
2022-12-18T01:15:00.383Z,87.21
2022-12-18T01:20:00.643Z,87.27
2022-12-18T01:25:00.503Z,87.07
2022-12-18T01:30:00.544Z,86.93
2022-12-18T01:35:00.445Z,86.80
2022-12-18T01:40:00.360Z,86.93
2022-12-18T01:45:14.687Z,86.75
2022-12-18T01:50:10.247Z,86.67
2022-12-18T01:55:02.393Z,86.60
2022-12-18T02:00:04.732Z,86.65
2022-12-18T02:05:01.866Z,86.65
2022-12-18T02:10:05.367Z,86.51
2022-12-18T02:15:09.529Z,86.26
2022-12-18T02:20:13.901Z,85.99
2022-12-18T02:25:10.294Z,85.82
2022-12-18T02:30:02.097Z,85.58
2022-12-18T02:35:03.404Z,85.73
2022-12-18T02:40:03.298Z,85.64
2022-12-18T02:45:00.461Z,85.59
2022-12-18T02:50:14.382Z,85.57
2022-12-18T02:55:12.744Z,85.45
2022-12-18T03:00:06.269Z,85.63
2022-12-18T03:05:13.664Z,85.38
2022-12-18T03:10:01.095Z,85.12
2022-12-18T03:15:14.535Z,85.16
2022-12-18T03:20:08.491Z,85.31
2022-12-18T03:25:04.396Z,85.07
2022-12-18T03:30:04.789Z,85.17
2022-12-18T03:35:04.720Z,85.29
2022-12-18T03:40:00.544Z,85.26
2022-12-18T03:45:09.651Z,85.24
2022-12-18T03:50:12.869Z,85.16
2022-12-18T03:55:03.212Z,85.15
2022-12-18T04:00:06.432Z,85.11
2022-12-18T04:05:04.400Z,85.00
2022-12-18T04:10:03.217Z,84.99
2022-12-18T04:15:00.423Z,84.80
2022-12-18T04:20:00.406Z,84.84
2022-12-18T04:25:00.406Z,84.79
2022-12-18T04:30:00.554Z,84.69
2022-12-18T04:35:00.439Z,84.78
2022-12-18T04:40:00.343Z,84.68
2022-12-18T04:45:00.359Z,84.51
2022-12-18T04:50:00.376Z,84.54
2022-12-18T04:55:00.421Z,84.43
2022-12-18T05:00:00.826Z,84.42
2022-12-18T05:05:00.534Z,84.39
2022-12-18T05:10:00.471Z,84.24
2022-12-18T05:15:03.963Z,84.29
2022-12-18T05:20:00.366Z,84.17
2022-12-18T05:25:00.412Z,84.20
2022-12-18T05:30:00.381Z,84.22
2022-12-18T05:35:00.436Z,84.27
2022-12-18T05:40:00.680Z,84.21
2022-12-18T05:45:00.377Z,84.14
2022-12-18T05:50:00.429Z,83.82
2022-12-18T05:55:00.352Z,83.93
2022-12-18T06:00:02.291Z,84.05
2022-12-18T06:05:00.402Z,84.01
2022-12-18T06:10:00.354Z,83.95
2022-12-18T06:15:00.399Z,83.99
2022-12-18T06:20:00.437Z,83.99
2022-12-18T06:25:00.429Z,83.95
2022-12-18T06:30:00.527Z,83.86
2022-12-18T06:35:00.460Z,83.87
2022-12-18T06:40:00.370Z,83.90
2022-12-18T06:45:00.350Z,83.89
2022-12-18T06:50:00.433Z,83.87
2022-12-18T06:55:00.697Z,83.95
2022-12-18T07:00:00.910Z,84.02
2022-12-18T07:05:02.759Z,83.96
2022-12-18T07:10:00.500Z,83.97
2022-12-18T07:15:00.483Z,83.92
2022-12-18T07:20:00.354Z,83.96
2022-12-18T07:25:00.549Z,83.62
2022-12-18T07:30:00.362Z,83.65
2022-12-18T07:35:00.338Z,83.83
2022-12-18T07:40:00.409Z,83.73
2022-12-18T07:45:00.972Z,83.61
2022-12-18T07:50:00.398Z,83.70
2022-12-18T07:55:00.520Z,83.44
2022-12-18T08:00:00.915Z,83.55
2022-12-18T08:05:00.442Z,83.43
2022-12-18T08:10:00.474Z,83.31
2022-12-18T08:15:00.419Z,83.18
2022-12-18T08:20:00.385Z,82.81
2022-12-18T08:25:00.484Z,82.40
2022-12-18T08:30:00.980Z,82.05
2022-12-18T08:35:00.369Z,82.47
2022-12-18T08:40:00.325Z,82.05
2022-12-18T08:45:00.792Z,81.73
2022-12-18T08:50:00.389Z,81.68
2022-12-18T08:55:00.400Z,82.01
2022-12-18T09:00:01.226Z,81.63
2022-12-18T09:05:00.406Z,80.90
2022-12-18T09:10:00.366Z,81.08
2022-12-18T09:15:00.474Z,80.90
2022-12-18T09:20:00.357Z,80.99
2022-12-18T09:25:00.417Z,80.99
2022-12-18T09:30:01.262Z,80.09
2022-12-18T09:35:00.339Z,80.50
2022-12-18T09:40:00.351Z,80.44
2022-12-18T09:45:02.622Z,80.18
2022-12-18T09:50:06.596Z,80.11
2022-12-18T09:55:06.364Z,79.98
2022-12-18T10:00:19.316Z,80.18
2022-12-18T10:05:05.617Z,80.05
2022-12-18T10:10:12.875Z,80.08
2022-12-18T10:15:08.715Z,79.07
2022-12-18T10:20:09.683Z,79.55
2022-12-18T10:25:20.342Z,80.10
2022-12-18T10:30:04.300Z,80.17
2022-12-18T10:35:01.130Z,79.47
2022-12-18T10:40:16.816Z,80.26
2022-12-18T10:45:09.417Z,79.34
2022-12-18T10:50:01.150Z,79.30
2022-12-18T10:55:03.873Z,79.34
2022-12-18T11:00:20.358Z,79.77
2022-12-18T11:05:00.763Z,79.35
2022-12-18T11:10:04.226Z,79.81
2022-12-18T11:15:00.402Z,78.21
2022-12-18T11:20:05.075Z,78.85
2022-12-18T11:25:34.009Z,78.89
2022-12-18T11:30:20.349Z,77.68
2022-12-18T11:35:09.772Z,77.70
2022-12-18T11:40:09.848Z,79.13
2022-12-18T11:45:14.428Z,77.84
2022-12-18T11:50:02.260Z,77.75
2022-12-18T11:55:04.971Z,76.70
2022-12-18T12:00:13.116Z,76.62
2022-12-18T12:05:20.349Z,77.73
2022-12-18T12:10:19.660Z,77.60
2022-12-18T12:20:20.412Z,77.21
2022-12-18T12:25:17.424Z,77.32
2022-12-18T12:30:14.807Z,76.63
2022-12-18T12:35:20.524Z,77.14
2022-12-18T12:40:10.966Z,77.44
2022-12-18T12:45:05.704Z,76.50
2022-12-18T12:50:03.515Z,77.02
2022-12-18T12:55:11.553Z,77.94
2022-12-18T13:00:05.378Z,77.04
2022-12-18T13:05:13.827Z,76.85
2022-12-18T13:10:11.695Z,77.45
2022-12-18T13:15:12.488Z,76.96
2022-12-18T13:20:11.792Z,77.55
2022-12-18T13:25:00.767Z,77.54
2022-12-18T13:30:00.669Z,78.05
2022-12-18T13:35:20.415Z,77.34
2022-12-18T13:40:00.626Z,77.52
2022-12-18T13:45:00.666Z,76.64
2022-12-18T13:50:18.141Z,76.76
2022-12-18T13:55:04.413Z,76.26
2022-12-18T14:00:20.638Z,77.48
2022-12-18T14:05:00.513Z,76.77
2022-12-18T14:10:18.716Z,76.61
2022-12-18T14:15:00.908Z,76.81
2022-12-18T14:20:00.557Z,76.60
2022-12-18T14:25:17.987Z,74.55
2022-12-18T14:30:00.580Z,76.70
2022-12-18T14:35:13.626Z,76.09
2022-12-18T14:40:11.066Z,75.19
2022-12-18T14:45:20.418Z,75.64
2022-12-18T14:50:00.527Z,75.57
2022-12-18T14:55:00.722Z,74.73
2022-12-18T15:00:06.992Z,75.09
2022-12-18T15:05:13.303Z,74.73
2022-12-18T15:10:02.637Z,75.60
2022-12-18T15:15:00.524Z,76.43
2022-12-18T15:20:09.079Z,76.13
2022-12-18T15:25:01.453Z,76.10
2022-12-18T15:30:07.938Z,75.42
2022-12-18T15:35:10.513Z,75.25
2022-12-18T15:40:00.712Z,75.88
2022-12-18T15:45:00.618Z,75.11
2022-12-18T15:50:00.822Z,75.11
2022-12-18T15:55:00.496Z,73.94
2022-12-18T16:00:02.031Z,75.43
2022-12-18T16:05:00.525Z,75.19
2022-12-18T16:10:02.328Z,75.08
2022-12-18T16:15:01.321Z,74.35
2022-12-18T16:20:00.654Z,74.47
2022-12-18T16:25:00.602Z,74.55
2022-12-18T16:30:00.575Z,74.58
2022-12-18T16:35:01.178Z,74.01
2022-12-18T16:40:00.515Z,74.78
2022-12-18T16:45:00.549Z,74.62
2022-12-18T16:50:00.782Z,74.21
2022-12-18T16:55:00.632Z,74.75
2022-12-18T17:00:05.455Z,73.94
2022-12-18T17:05:00.624Z,74.18
2022-12-18T17:10:00.513Z,73.70
2022-12-18T17:15:00.680Z,72.74
2022-12-18T17:20:00.496Z,73.66
2022-12-18T17:25:00.559Z,74.01
2022-12-18T17:30:00.807Z,72.83
2022-12-18T17:35:06.693Z,72.99
2022-12-18T17:40:00.553Z,73.02
2022-12-18T17:45:00.609Z,72.91
2022-12-18T17:50:00.513Z,73.53
2022-12-18T17:55:00.644Z,73.23
2022-12-18T18:00:01.058Z,73.93
2022-12-18T18:05:00.529Z,73.77
2022-12-18T18:10:00.515Z,73.78
2022-12-18T18:15:00.506Z,73.87
2022-12-18T18:20:00.823Z,74.10
2022-12-18T18:25:00.581Z,73.47
2022-12-18T18:30:00.518Z,73.63
2022-12-18T18:35:00.571Z,73.71
2022-12-18T18:40:00.610Z,73.29
2022-12-18T18:45:00.533Z,73.07
2022-12-18T18:50:00.541Z,73.01
2022-12-18T18:55:12.723Z,73.05
2022-12-18T19:00:02.097Z,72.63
2022-12-18T19:05:00.646Z,72.87
2022-12-18T19:10:04.482Z,72.94
2022-12-18T19:15:00.513Z,72.78
2022-12-18T19:20:00.528Z,72.95
2022-12-18T19:25:01.334Z,72.22
2022-12-18T19:30:00.533Z,72.67
2022-12-18T19:35:00.538Z,72.82
2022-12-18T19:40:00.521Z,72.63
2022-12-18T19:45:00.654Z,72.65
2022-12-18T19:50:00.704Z,73.31
2022-12-18T19:55:00.681Z,74.90
2022-12-18T20:00:02.282Z,76.06
2022-12-18T20:05:01.233Z,76.83
2022-12-18T20:10:05.545Z,78.20
2022-12-18T20:15:00.642Z,79.01
2022-12-18T20:20:00.521Z,79.04
2022-12-18T20:25:00.528Z,79.87
2022-12-18T20:30:00.540Z,79.94
2022-12-18T20:35:00.500Z,81.33
2022-12-18T20:40:00.637Z,82.34
2022-12-18T20:45:00.575Z,82.86
2022-12-18T20:50:00.779Z,83.04
2022-12-18T20:55:04.999Z,84.05
2022-12-18T21:00:02.283Z,84.05
2022-12-18T21:05:00.555Z,84.75
2022-12-18T21:10:04.702Z,85.00
2022-12-18T21:15:02.173Z,84.61
2022-12-18T21:20:00.974Z,85.70
2022-12-18T21:25:00.511Z,85.72
2022-12-18T21:30:00.591Z,86.18
2022-12-18T21:35:00.503Z,86.53
2022-12-18T21:40:00.657Z,86.87
2022-12-18T21:45:00.509Z,86.81
2022-12-18T21:50:00.546Z,87.55
2022-12-18T21:55:06.548Z,87.45
2022-12-18T22:00:01.905Z,88.20
2022-12-18T22:05:00.541Z,88.46
2022-12-18T22:10:01.928Z,89.00
2022-12-18T22:15:01.477Z,89.34
2022-12-18T22:20:00.541Z,88.61
2022-12-18T22:25:00.526Z,88.69
2022-12-18T22:30:00.736Z,88.49
2022-12-18T22:35:08.008Z,89.14
2022-12-18T22:40:02.780Z,89.12
2022-12-18T22:45:00.659Z,89.56
2022-12-18T22:50:00.518Z,89.59
2022-12-18T22:55:00.505Z,89.26
2022-12-18T23:00:03.038Z,89.32
2022-12-18T23:05:00.548Z,89.44
2022-12-18T23:10:01.380Z,89.68
2022-12-18T23:15:00.578Z,89.97
2022-12-18T23:20:00.791Z,89.70
2022-12-18T23:25:00.539Z,89.94
2022-12-18T23:30:01.173Z,89.89
2022-12-18T23:35:00.528Z,90.39
2022-12-18T23:40:00.636Z,89.79
2022-12-18T23:45:00.623Z,90.21
2022-12-18T23:50:00.606Z,90.47
2022-12-18T23:55:00.522Z,90.67
